createdAt,value
2019-01-30T00:00:41.175Z,8.47
2019-01-30T00:03:08.034Z,11.70
2019-01-30T00:05:34.870Z,9.78
2019-01-30T00:08:01.722Z,15.53
2019-01-30T00:10:28.563Z,11.22
2019-01-30T00:12:55.405Z,14.10
2019-01-30T00:15:22.259Z,12.25
2019-01-30T00:17:49.105Z,14.43
2019-01-30T00:20:15.942Z,10.65
2019-01-30T00:22:42.786Z,11.30
2019-01-30T00:25:09.668Z,8.40
2019-01-30T00:27:36.510Z,12.98
2019-01-30T00:30:05.176Z,10.93
2019-01-30T00:32:32.030Z,12.60
2019-01-30T00:34:58.857Z,10.45
2019-01-30T00:37:25.721Z,10.72
2019-01-30T00:39:52.551Z,11.78
2019-01-30T00:42:19.473Z,10.37
2019-01-30T00:44:46.315Z,9.95
2019-01-30T00:47:15.977Z,10.20
2019-01-30T00:49:39.998Z,9.67
2019-01-30T00:52:06.854Z,9.18
2019-01-30T00:54:33.681Z,11.38
2019-01-30T00:57:00.616Z,8.50
2019-01-30T00:59:27.372Z,8.43
2019-01-30T01:01:54.211Z,9.83
2019-01-30T01:04:21.058Z,7.80
2019-01-30T01:06:47.892Z,9.78
2019-01-30T01:09:14.734Z,9.15
2019-01-30T01:11:41.566Z,8.57
2019-01-30T01:14:08.418Z,9.85
2019-01-30T01:16:35.246Z,10.88
2019-01-30T01:19:02.092Z,12.70
2019-01-30T01:21:28.914Z,10.58
2019-01-30T01:23:55.758Z,11.70
2019-01-30T01:26:22.658Z,8.00
2019-01-30T01:28:49.518Z,10.05
2019-01-30T01:31:16.357Z,9.00
2019-01-30T01:33:43.202Z,8.40
2019-01-30T01:36:10.045Z,8.58
2019-01-30T01:38:36.901Z,11.12
2019-01-30T01:41:03.739Z,11.73
2019-01-30T01:43:30.590Z,10.35
2019-01-30T01:45:57.423Z,10.60
2019-01-30T01:48:24.258Z,9.50
2019-01-30T01:50:51.086Z,9.98
2019-01-30T01:53:17.950Z,10.55
2019-01-30T01:55:44.810Z,10.07
2019-01-30T01:58:11.649Z,9.05
2019-01-30T02:00:38.529Z,9.68
2019-01-30T02:03:05.381Z,8.10
2019-01-30T02:05:32.214Z,9.68
2019-01-30T02:07:59.052Z,10.65
2019-01-30T02:10:25.914Z,6.47
2019-01-30T02:12:52.742Z,10.53
2019-01-30T02:15:20.750Z,8.48
2019-01-30T02:17:47.569Z,11.40
2019-01-30T02:20:18.654Z,9.80
2019-01-30T02:22:45.482Z,8.88
2019-01-30T02:25:12.333Z,5.90
2019-01-30T02:27:39.166Z,7.80
2019-01-30T02:30:09.928Z,9.93
2019-01-30T02:32:36.784Z,7.30
2019-01-30T02:35:03.821Z,7.78
2019-01-30T02:37:30.658Z,9.30
2019-01-30T02:39:57.514Z,11.57
2019-01-30T02:42:24.339Z,6.35
2019-01-30T02:44:51.174Z,6.87
2019-01-30T02:47:18.007Z,5.60
2019-01-30T02:49:44.863Z,7.65
2019-01-30T02:52:11.691Z,8.93
2019-01-30T02:54:38.534Z,6.43
2019-01-30T02:57:05.363Z,7.78
2019-01-30T02:59:32.206Z,6.90
2019-01-30T03:02:18.647Z,6.80
2019-01-30T03:04:45.495Z,8.85
2019-01-30T03:07:12.418Z,7.13
2019-01-30T03:09:39.268Z,9.18
2019-01-30T03:12:06.101Z,7.95
2019-01-30T03:14:32.945Z,6.67
2019-01-30T03:16:59.781Z,8.80
2019-01-30T03:19:26.626Z,8.07
2019-01-30T03:21:53.463Z,8.10
2019-01-30T03:24:20.312Z,6.78
2019-01-30T03:26:47.148Z,6.60
2019-01-30T03:29:14.003Z,7.83
2019-01-30T03:31:40.855Z,8.28
2019-01-30T03:34:07.702Z,9.47
2019-01-30T03:36:34.533Z,8.40
2019-01-30T03:39:01.386Z,10.55
2019-01-30T03:41:28.209Z,6.10
2019-01-30T03:43:55.055Z,9.48
2019-01-30T03:46:21.950Z,6.57
2019-01-30T03:48:48.780Z,7.00
2019-01-30T03:51:15.622Z,8.80
2019-01-30T03:53:42.467Z,6.30
2019-01-30T03:56:09.318Z,8.43
2019-01-30T03:58:36.145Z,10.08
2019-01-30T04:01:02.987Z,7.45
2019-01-30T04:03:29.817Z,6.43
2019-01-30T04:05:56.753Z,7.10
2019-01-30T04:08:23.503Z,8.47
2019-01-30T04:10:50.354Z,6.90
2019-01-30T04:13:17.182Z,7.78
2019-01-30T04:15:44.029Z,8.37
2019-01-30T04:18:10.861Z,5.78
2019-01-30T04:20:37.710Z,6.03
2019-01-30T04:23:04.662Z,6.47
2019-01-30T04:25:31.520Z,5.83
2019-01-30T04:27:58.342Z,7.00
2019-01-30T04:30:25.194Z,4.37
2019-01-30T04:32:52.057Z,6.00
2019-01-30T04:35:18.909Z,7.60
2019-01-30T04:37:45.738Z,5.93
2019-01-30T04:40:14.549Z,5.87
2019-01-30T04:42:41.389Z,6.57
2019-01-30T04:45:10.511Z,5.55
2019-01-30T04:47:37.359Z,7.78
2019-01-30T04:50:04.785Z,6.67
2019-01-30T04:52:31.621Z,5.70
2019-01-30T04:54:58.470Z,6.57
2019-01-30T04:57:25.314Z,5.60
2019-01-30T04:59:52.175Z,6.92
2019-01-30T05:02:19.003Z,8.13
2019-01-30T05:04:45.873Z,5.77
2019-01-30T05:07:12.699Z,7.40
2019-01-30T05:09:39.541Z,6.70
2019-01-30T05:12:06.374Z,6.33
2019-01-30T05:14:33.314Z,8.15
2019-01-30T05:17:00.146Z,7.00
2019-01-30T05:19:27.002Z,7.00
2019-01-30T05:21:53.839Z,6.03
2019-01-30T05:24:20.691Z,5.30
2019-01-30T05:26:47.664Z,7.42
2019-01-30T05:29:14.515Z,6.53
2019-01-30T05:31:41.370Z,7.20
2019-01-30T05:34:08.198Z,6.03
2019-01-30T05:36:35.046Z,5.97
2019-01-30T05:39:01.883Z,7.33
2019-01-30T05:41:28.730Z,6.25
2019-01-30T05:43:55.604Z,5.70
2019-01-30T05:46:22.450Z,5.10
2019-01-30T05:48:49.294Z,6.15
2019-01-30T05:51:16.235Z,5.67
2019-01-30T05:53:43.071Z,7.08
2019-01-30T05:56:11.803Z,6.43
2019-01-30T05:58:38.684Z,7.97
2019-01-30T06:01:05.542Z,5.40
2019-01-30T06:03:32.826Z,6.35
2019-01-30T06:05:59.698Z,7.15
2019-01-30T06:08:26.542Z,6.08
2019-01-30T06:10:53.405Z,11.17
2019-01-30T06:13:20.264Z,7.05
2019-01-30T06:15:47.187Z,5.70
2019-01-30T06:18:14.014Z,7.90
2019-01-30T06:20:40.878Z,6.27
2019-01-30T06:23:07.725Z,5.67
2019-01-30T06:25:34.570Z,7.60
2019-01-30T06:28:01.402Z,6.10
2019-01-30T06:30:28.261Z,5.28
2019-01-30T06:32:55.106Z,6.07
2019-01-30T06:35:21.983Z,5.95
2019-01-30T06:37:48.813Z,8.93
2019-01-30T06:40:19.797Z,6.35
2019-01-30T06:42:46.623Z,5.10
2019-01-30T06:45:13.493Z,5.35
2019-01-30T06:47:40.330Z,7.13
2019-01-30T06:50:07.729Z,5.37
2019-01-30T06:52:34.589Z,6.03
2019-01-30T06:55:01.426Z,7.15
2019-01-30T06:57:28.277Z,7.10
2019-01-30T06:59:55.123Z,6.83
2019-01-30T07:02:31.829Z,5.93
2019-01-30T07:04:49.205Z,6.50
2019-01-30T07:07:16.094Z,8.37
2019-01-30T07:09:42.922Z,4.95
2019-01-30T07:12:09.786Z,4.00
2019-01-30T07:14:36.625Z,4.40
2019-01-30T07:17:03.505Z,4.40
2019-01-30T07:19:30.350Z,4.72
2019-01-30T07:21:57.206Z,7.45
2019-01-30T07:24:24.050Z,4.57
2019-01-30T07:26:50.923Z,4.77
2019-01-30T07:29:17.754Z,5.90
2019-01-30T07:31:44.623Z,5.17
2019-01-30T07:34:11.444Z,5.15
2019-01-30T07:36:38.302Z,5.63
2019-01-30T07:39:07.735Z,3.52
2019-01-30T07:41:34.588Z,3.00
2019-01-30T07:44:01.430Z,4.93
2019-01-30T07:46:28.278Z,3.77
2019-01-30T07:48:55.122Z,4.90
2019-01-30T07:51:21.980Z,4.30
2019-01-30T07:53:48.811Z,3.10
2019-01-30T07:56:15.653Z,3.85
2019-01-30T07:58:42.482Z,3.77
2019-01-30T08:01:09.322Z,3.33
2019-01-30T08:03:36.157Z,2.90
2019-01-30T08:06:03.003Z,5.90
2019-01-30T08:08:29.858Z,3.43
2019-01-30T08:10:56.710Z,2.80
2019-01-30T08:13:23.531Z,3.93
2019-01-30T08:15:50.370Z,4.00
2019-01-30T08:18:17.222Z,5.63
2019-01-30T08:20:44.050Z,3.13
2019-01-30T08:23:10.931Z,3.43
2019-01-30T08:25:37.879Z,8.20
2019-01-30T08:28:04.686Z,5.17
2019-01-30T08:30:31.535Z,4.30
2019-01-30T08:33:04.666Z,3.22
2019-01-30T08:35:26.777Z,3.03
2019-01-30T08:37:53.622Z,3.10
2019-01-30T08:40:20.458Z,2.70
2019-01-30T08:42:47.413Z,3.90
2019-01-30T08:45:17.813Z,3.05
2019-01-30T08:47:44.680Z,2.70
2019-01-30T08:50:11.654Z,2.10
2019-01-30T08:52:38.500Z,2.10
2019-01-30T08:55:05.406Z,2.73
2019-01-30T08:57:32.263Z,1.80
2019-01-30T08:59:59.095Z,2.30
2019-01-30T09:02:25.942Z,2.50
2019-01-30T09:04:52.779Z,1.60
2019-01-30T09:07:19.706Z,1.10
2019-01-30T09:09:46.854Z,1.70
2019-01-30T09:12:13.706Z,0.80
2019-01-30T09:14:40.549Z,1.47
2019-01-30T09:17:08.770Z,1.10
2019-01-30T09:19:34.234Z,1.50
2019-01-30T09:22:01.086Z,1.03
2019-01-30T09:24:27.936Z,2.10
2019-01-30T09:26:54.786Z,0.90
2019-01-30T09:29:21.616Z,0.50
2019-01-30T09:31:48.465Z,0.60
2019-01-30T09:34:15.286Z,1.67
2019-01-30T09:36:42.110Z,0.60
2019-01-30T09:39:08.972Z,1.10
2019-01-30T09:41:35.837Z,1.50
2019-01-30T09:44:02.715Z,1.60
2019-01-30T09:46:29.542Z,1.47
2019-01-30T09:48:56.397Z,2.30
2019-01-30T09:51:23.234Z,0.50
2019-01-30T09:53:50.090Z,1.23
2019-01-30T09:56:16.921Z,2.30
2019-01-30T09:58:43.774Z,0.93
2019-01-30T10:01:10.614Z,0.50
2019-01-30T10:03:37.467Z,1.00
2019-01-30T10:06:04.316Z,0.63
2019-01-30T10:08:31.165Z,0.60
2019-01-30T10:10:58.015Z,0.77
2019-01-30T10:13:24.873Z,0.50
2019-01-30T10:15:51.710Z,0.53
2019-01-30T10:18:18.568Z,0.50
2019-01-30T10:20:46.414Z,0.60
2019-01-30T10:23:13.261Z,0.70
2019-01-30T10:25:40.118Z,0.90
2019-01-30T10:28:16.197Z,0.70
2019-01-30T10:30:35.423Z,0.60
2019-01-30T10:33:02.271Z,1.00
2019-01-30T10:35:29.098Z,0.50
2019-01-30T10:37:55.951Z,0.77
2019-01-30T10:40:22.781Z,1.43
2019-01-30T10:42:49.679Z,0.60
2019-01-30T10:45:16.654Z,2.87
2019-01-30T10:47:43.548Z,0.80
2019-01-30T10:50:12.019Z,0.60
2019-01-30T10:52:38.996Z,0.73
2019-01-30T10:55:08.255Z,0.60
2019-01-30T10:57:35.119Z,0.60
2019-01-30T11:00:01.946Z,0.60
2019-01-30T11:02:28.779Z,0.70
2019-01-30T11:04:55.639Z,0.93
2019-01-30T11:07:22.482Z,0.70
2019-01-30T11:09:49.358Z,0.60
2019-01-30T11:12:16.182Z,0.50
2019-01-30T11:14:43.046Z,1.60
2019-01-30T11:17:09.878Z,0.70
2019-01-30T11:19:36.739Z,0.60
2019-01-30T11:22:03.571Z,0.60
2019-01-30T11:24:30.426Z,0.50
2019-01-30T11:26:57.266Z,0.73
2019-01-30T11:29:24.125Z,0.80
2019-01-30T11:31:50.954Z,0.70
2019-01-30T11:34:17.802Z,0.90
2019-01-30T11:36:44.629Z,1.00
2019-01-30T11:39:11.489Z,0.80
2019-01-30T11:41:38.321Z,0.70
2019-01-30T11:44:05.207Z,0.70
2019-01-30T11:46:32.091Z,1.20
2019-01-30T11:48:58.930Z,0.80
2019-01-30T11:51:25.784Z,0.50
2019-01-30T11:53:52.630Z,0.50
2019-01-30T11:56:19.478Z,0.60
2019-01-30T11:58:46.314Z,0.70
2019-01-30T12:01:13.170Z,0.60
2019-01-30T12:03:40.022Z,0.53
2019-01-30T12:06:06.862Z,0.50
2019-01-30T12:08:33.722Z,0.70
2019-01-30T12:11:00.558Z,1.03
2019-01-30T12:13:27.438Z,1.67
2019-01-30T12:15:54.273Z,0.60
2019-01-30T12:18:21.126Z,0.90
2019-01-30T12:20:48.081Z,1.50
2019-01-30T12:23:14.926Z,0.70
2019-01-30T12:25:41.820Z,0.87
2019-01-30T12:28:08.683Z,0.80
2019-01-30T12:30:35.522Z,1.00
2019-01-30T12:33:02.379Z,0.70
2019-01-30T12:35:29.206Z,0.90
2019-01-30T12:37:56.064Z,0.77
2019-01-30T12:40:22.906Z,0.60
2019-01-30T12:42:49.758Z,1.13
2019-01-30T12:45:27.128Z,1.47
2019-01-30T12:47:53.990Z,0.60
2019-01-30T12:50:21.033Z,0.60
2019-01-30T12:52:48.886Z,0.80
2019-01-30T12:55:15.702Z,1.07
2019-01-30T12:57:42.762Z,0.90
2019-01-30T13:00:14.314Z,1.42
2019-01-30T13:02:41.456Z,0.80
2019-01-30T13:05:08.285Z,1.12
2019-01-30T13:07:35.146Z,1.10
2019-01-30T13:10:01.995Z,0.77
2019-01-30T13:12:28.958Z,1.30
2019-01-30T13:14:55.790Z,1.00
2019-01-30T13:17:22.670Z,1.30
2019-01-30T13:19:49.505Z,1.20
2019-01-30T13:22:16.366Z,1.30
2019-01-30T13:24:43.200Z,2.30
2019-01-30T13:27:10.061Z,1.20
2019-01-30T13:29:37.035Z,1.20
2019-01-30T13:32:03.921Z,1.92
2019-01-30T13:34:30.822Z,1.50
2019-01-30T13:36:57.705Z,1.60
2019-01-30T13:39:24.682Z,1.93
2019-01-30T13:41:52.740Z,1.50
2019-01-30T13:44:18.711Z,1.30
2019-01-30T13:46:45.594Z,1.98
2019-01-30T13:49:12.649Z,1.73
2019-01-30T13:51:39.568Z,1.87
2019-01-30T13:54:06.528Z,1.10
2019-01-30T13:56:33.402Z,1.40
2019-01-30T13:59:00.290Z,1.43
2019-01-30T14:01:27.495Z,1.50
2019-01-30T14:03:54.356Z,1.53
2019-01-30T14:06:21.219Z,1.17
2019-01-30T14:08:48.046Z,1.62
2019-01-30T14:11:14.890Z,2.00
2019-01-30T14:13:41.763Z,1.50
2019-01-30T14:16:08.578Z,0.83
2019-01-30T14:18:35.422Z,1.40
2019-01-30T14:21:02.300Z,1.40
2019-01-30T14:23:29.122Z,1.55
2019-01-30T14:25:55.953Z,1.50
2019-01-30T14:28:22.805Z,1.70
2019-01-30T14:30:49.715Z,3.93
2019-01-30T14:33:17.786Z,1.40
2019-01-30T14:35:45.710Z,1.30
2019-01-30T14:38:12.528Z,1.30
2019-01-30T14:40:39.510Z,1.10
2019-01-30T14:43:06.439Z,1.12
2019-01-30T14:45:33.273Z,1.20
2019-01-30T14:48:00.254Z,1.10
2019-01-30T14:50:27.146Z,1.03
2019-01-30T14:52:53.989Z,1.05
2019-01-30T14:55:20.917Z,1.12
2019-01-30T14:57:47.960Z,1.70
2019-01-30T15:00:18.020Z,1.70
2019-01-30T15:02:44.853Z,2.00
2019-01-30T15:05:21.924Z,1.83
2019-01-30T15:07:39.032Z,2.60
2019-01-30T15:10:07.099Z,1.90
2019-01-30T15:12:33.963Z,2.98
2019-01-30T15:15:00.798Z,2.70
2019-01-30T15:17:27.682Z,2.40
2019-01-30T15:19:54.580Z,1.52
2019-01-30T15:22:21.430Z,1.57
2019-01-30T15:24:48.278Z,2.62
2019-01-30T15:27:15.109Z,1.70
2019-01-30T15:29:42.038Z,2.10
2019-01-30T15:32:08.918Z,4.30
2019-01-30T15:34:35.771Z,3.47
2019-01-30T15:37:02.601Z,2.42
2019-01-30T15:39:29.496Z,3.47
2019-01-30T15:41:56.363Z,2.40
2019-01-30T15:44:23.315Z,2.77
2019-01-30T15:46:50.154Z,3.60
2019-01-30T15:49:17.023Z,2.77
2019-01-30T15:51:43.850Z,2.80
2019-01-30T15:54:10.702Z,2.83
2019-01-30T15:56:37.521Z,3.80
2019-01-30T15:59:05.522Z,2.90
2019-01-30T16:01:36.461Z,4.83
2019-01-30T16:04:05.983Z,4.20
2019-01-30T16:06:30.196Z,3.85
2019-01-30T16:08:57.058Z,4.30
2019-01-30T16:11:23.891Z,3.03
2019-01-30T16:13:50.747Z,3.92
2019-01-30T16:16:17.599Z,3.53
2019-01-30T16:18:44.441Z,4.97
2019-01-30T16:21:11.283Z,5.92
2019-01-30T16:23:38.192Z,4.13
2019-01-30T16:26:05.041Z,5.25
2019-01-30T16:28:31.890Z,6.00
2019-01-30T16:30:58.738Z,5.17
2019-01-30T16:33:25.567Z,4.70
2019-01-30T16:35:56.286Z,7.23
2019-01-30T16:38:19.274Z,5.22
2019-01-30T16:40:46.130Z,4.03
2019-01-30T16:43:13.006Z,5.47
2019-01-30T16:45:39.803Z,4.60
2019-01-30T16:48:07.154Z,6.90
2019-01-30T16:50:34.488Z,4.65
2019-01-30T16:53:01.022Z,5.77
2019-01-30T16:55:27.904Z,7.15
2019-01-30T16:57:54.798Z,10.87
2019-01-30T17:00:24.550Z,5.85
2019-01-30T17:02:51.386Z,2.63
2019-01-30T17:05:18.338Z,5.55
2019-01-30T17:07:45.239Z,4.27
2019-01-30T17:10:12.114Z,5.60
2019-01-30T17:12:38.951Z,4.50
2019-01-30T17:15:08.143Z,4.30
2019-01-30T17:17:34.986Z,3.97
2019-01-30T17:20:01.919Z,3.47
2019-01-30T17:22:28.857Z,1.60
2019-01-30T17:24:55.709Z,4.42
2019-01-30T17:27:22.559Z,3.77
2019-01-30T17:29:49.508Z,1.57
2019-01-30T17:32:16.346Z,6.40
2019-01-30T17:34:43.206Z,4.03
2019-01-30T17:37:10.142Z,6.57
2019-01-30T17:39:37.002Z,5.05
2019-01-30T17:42:04.004Z,4.03
2019-01-30T17:44:30.838Z,3.90
2019-01-30T17:46:57.691Z,5.22
2019-01-30T17:49:24.536Z,7.53
2019-01-30T17:51:51.578Z,6.00
2019-01-30T17:54:18.415Z,4.80
2019-01-30T17:56:45.358Z,5.47
2019-01-30T17:59:12.201Z,5.50
2019-01-30T18:01:39.066Z,7.97
2019-01-30T18:04:05.980Z,5.07
2019-01-30T18:06:32.853Z,8.28
2019-01-30T18:08:59.744Z,8.08
2019-01-30T18:11:26.697Z,6.20
2019-01-30T18:13:53.527Z,8.73
2019-01-30T18:16:20.696Z,7.33
2019-01-30T18:18:47.561Z,5.47
2019-01-30T18:21:14.422Z,3.00
2019-01-30T18:23:41.347Z,5.10
2019-01-30T18:26:08.212Z,4.60
2019-01-30T18:28:35.420Z,5.00
2019-01-30T18:31:02.297Z,5.07
2019-01-30T18:33:29.143Z,5.92
2019-01-30T18:35:56.976Z,6.20
2019-01-30T18:38:23.841Z,6.90
2019-01-30T18:40:50.707Z,6.13
2019-01-30T18:43:17.631Z,3.47
2019-01-30T18:45:44.498Z,6.35
2019-01-30T18:48:11.373Z,6.50
2019-01-30T18:50:38.247Z,3.85
2019-01-30T18:53:05.138Z,5.40
2019-01-30T18:55:32.020Z,5.87
2019-01-30T18:57:58.869Z,7.03
2019-01-30T19:00:30.726Z,2.30
2019-01-30T19:02:59.046Z,5.40
2019-01-30T19:05:25.946Z,6.37
2019-01-30T19:07:52.799Z,6.92
2019-01-30T19:10:19.666Z,2.53
2019-01-30T19:12:46.704Z,6.00
2019-01-30T19:15:15.939Z,2.43
2019-01-30T19:17:42.785Z,7.45
2019-01-30T19:20:12.783Z,6.70
2019-01-30T19:22:39.631Z,16.30
2019-01-30T19:25:06.567Z,12.87
2019-01-30T19:27:33.423Z,8.23
2019-01-30T19:30:00.325Z,9.65
2019-01-30T19:32:27.175Z,5.57
2019-01-30T19:34:53.944Z,7.10
2019-01-30T19:37:20.830Z,12.20
2019-01-30T19:39:47.669Z,7.00
2019-01-30T19:42:14.921Z,3.13
2019-01-30T19:44:41.747Z,6.50
2019-01-30T19:47:08.590Z,2.80
2019-01-30T19:49:35.473Z,3.40
2019-01-30T19:52:02.319Z,4.70
2019-01-30T19:54:29.250Z,3.98
2019-01-30T19:56:56.110Z,6.70
2019-01-30T19:59:22.962Z,6.00
2019-01-30T20:01:49.854Z,6.37
2019-01-30T20:04:16.728Z,7.63
2019-01-30T20:06:43.566Z,6.90
2019-01-30T20:09:19.811Z,2.27
2019-01-30T20:11:46.667Z,9.17
2019-01-30T20:14:13.520Z,2.90
2019-01-30T20:16:40.379Z,3.70
2019-01-30T20:19:07.337Z,7.90
2019-01-30T20:21:34.222Z,4.90
2019-01-30T20:24:01.139Z,5.20
2019-01-30T20:26:27.986Z,8.27
2019-01-30T20:28:54.838Z,4.95
2019-01-30T20:31:21.693Z,6.07
2019-01-30T20:33:48.564Z,6.63
2019-01-30T20:36:15.434Z,6.70
2019-01-30T20:38:42.288Z,3.10
2019-01-30T20:41:09.234Z,7.03
2019-01-30T20:43:36.082Z,5.67
2019-01-30T20:46:02.924Z,7.08
2019-01-30T20:48:29.774Z,5.28
2019-01-30T20:50:56.606Z,9.77
2019-01-30T20:53:23.458Z,8.40
2019-01-30T20:55:50.290Z,5.67
2019-01-30T20:58:17.138Z,7.53
2019-01-30T21:00:43.965Z,10.30
2019-01-30T21:03:10.822Z,9.28
2019-01-30T21:05:37.660Z,7.67
2019-01-30T21:08:05.337Z,5.85
2019-01-30T21:10:35.467Z,6.62
2019-01-30T21:13:02.314Z,4.53
2019-01-30T21:15:29.157Z,8.38
2019-01-30T21:17:56.057Z,8.77
2019-01-30T21:20:22.892Z,7.43
2019-01-30T21:22:49.737Z,6.40
2019-01-30T21:25:18.031Z,7.47
2019-01-30T21:27:44.902Z,7.55
2019-01-30T21:30:14.470Z,9.23
2019-01-30T21:32:41.331Z,6.45
2019-01-30T21:35:08.194Z,5.80
2019-01-30T21:37:35.076Z,4.40
2019-01-30T21:40:01.973Z,6.40
2019-01-30T21:42:28.885Z,6.87
2019-01-30T21:44:55.709Z,10.87
2019-01-30T21:47:22.551Z,5.30
2019-01-30T21:49:49.381Z,5.80
2019-01-30T21:52:16.231Z,4.53
2019-01-30T21:54:43.070Z,4.10
2019-01-30T21:57:09.910Z,6.20
2019-01-30T21:59:36.737Z,5.58
2019-01-30T22:02:08.532Z,6.23
2019-01-30T22:04:30.447Z,7.90
2019-01-30T22:06:57.379Z,5.92
2019-01-30T22:09:24.231Z,8.30
2019-01-30T22:11:51.070Z,6.28
2019-01-30T22:14:17.910Z,5.50
2019-01-30T22:16:44.737Z,6.75
2019-01-30T22:19:11.590Z,8.93
2019-01-30T22:21:38.466Z,12.90
2019-01-30T22:24:06.004Z,13.10
2019-01-30T22:26:32.166Z,12.05
2019-01-30T22:28:59.018Z,23.43
2019-01-30T22:31:25.843Z,32.80
2019-01-30T22:33:52.710Z,23.70
2019-01-30T22:36:19.542Z,17.67
2019-01-30T22:38:46.394Z,13.90
2019-01-30T22:41:13.230Z,11.35
2019-01-30T22:43:40.082Z,8.40
2019-01-30T22:46:06.909Z,13.35
2019-01-30T22:48:33.802Z,26.77
2019-01-30T22:51:00.637Z,16.65
2019-01-30T22:53:27.485Z,14.70
2019-01-30T22:55:54.317Z,13.87
2019-01-30T22:58:21.168Z,14.25
2019-01-30T23:01:10.126Z,10.30
2019-01-30T23:04:00.686Z,9.93
2019-01-30T23:06:49.673Z,9.37
2019-01-30T23:09:52.753Z,8.30
2019-01-30T23:12:35.020Z,7.93
2019-01-30T23:15:08.798Z,7.83
2019-01-30T23:18:02.622Z,7.97
2019-01-30T23:20:37.426Z,8.85
2019-01-30T23:23:23.459Z,8.50
2019-01-30T23:25:59.278Z,11.18
2019-01-30T23:28:53.618Z,7.77
2019-01-30T23:31:44.194Z,11.08
2019-01-30T23:34:36.354Z,10.90
2019-01-30T23:37:21.949Z,13.00
2019-01-30T23:40:00.410Z,5.90
2019-01-30T23:42:40.686Z,6.37
2019-01-30T23:45:24.945Z,6.20
2019-01-30T23:48:19.930Z,12.80
2019-01-30T23:50:59.600Z,7.30
2019-01-30T23:53:52.110Z,7.97
2019-01-30T23:56:48.601Z,6.12
2019-01-30T23:59:38.958Z,7.97
